Archival Weather

Chicago O'Hare International

Chicago, Illinois (KORD)

Report from: Tuesday, September 19, 2023 10:51 AM CDT
Current time: Friday, June 21, 2024 6:27 PM CDT

Current weather – Weather history – Daily summaries
Weather forecast

Temperature15.6°C (60.1°F)
Dew point12.8°C (55.0°F)
Winds 5 kts (2.6 m/s, 5.8 mph) South (190°)
Visibility10 mi. (16.1 km)
Clouds Few clouds 3,800 ft. (1,158 m)
Ceiling: Overcast 9,000 ft. (2,743 m)
Altimeter30.05 in.Hg (1018 mB)
PrecipitiationTrace
Precip. events Rain ended 3:47 PM
Relative humidity83 %
Density altitude137 ft. (42 m)
Sea-level pressure101.7 kPa (1017 mB, 30.04 in.Hg)
Remarks Automated weather observing station with precipitation discriminator
Flight conditions Visual Meteorological Conditions
Raw dataKORD 191551Z 19005KT 10SM FEW038 OVC090 16/13 A3005 RMK AO2 RAE47 SLP174 P0000 T01560128
An error has occurred. This application may no longer respond until reloaded. Reload 🗙